Pagrindinis puslapis
METAR-TAF:

METAR-TAF

Oro uostai :

Pernu, Estija

platuma: 58-25-09N, ilguma: 024-28-22E, Aukštis: 14 m

Dabartinis oras

Ataskaita buvo paskelbta 13 valandos ir 58 minutes, ne 12:50 UTC
Vėjas 11 kt iš Pietų/Pietvakarių, svyruoja nuo Pietų/Pietryčių ir Pietvakarių
Temperatūra 19°C
Drėgmė 78%
Slėgis 1023 hPa
Matomumas 10 km arba daugiau
Mažai debesys
Apsiniaukę

METAR: EEPU 231250Z 20011KT 160V220 9999 FEW/// OVC/// 19/15 Q1023 RERA

Laikas: 05:48 (02:48 UTC)


TAF: trūkstamas

Orai ataskaitas ir orų prognozės (METAR, TAF).

turimą stotys yra geltonos ir raudonos taškus žemėlapyje.

Perkelti pele per norėdami pamatyti stoties vardą.

Tada spustelėkite, norėdami matyti oro stebėjimo ir prognozės.

Norėdami pakeisti žemėlapį: spustelėkite ant žalios mygtukų su juodo kryžiaus žemyn,; žalią mygtuką su brūkšneliu, jei norite nutolinti; arba žalių rodyklių gretimoms žemėlapius.


METAR-TAF: